Time;durP1;ratioP1;P1;durP2;ratioP2;P2;SDS_P1;SDS_P2;PMS_P1;PMS_P2;Temp;Humidity;BMP_temperature;BMP_pressure;BME280_temperature;BME280_humidity;BME280_pressure;Samples;Min_cycle;Max_cycle;Signal;HPM_P1;HPM_P2
2022/12/24 00:02:22;;;;;;;10.00;4.93;;;;;;;;;;5015363;28;20413;-79
2022/12/24 00:04:48;;;;;;;10.97;5.27;;;;;;;;;;5014840;28;20786;-78
2022/12/24 00:07:14;;;;;;;12.97;5.43;;;;;;;;;;5015162;28;20432;-80
2022/12/24 00:09:40;;;;;;;7.67;4.40;;;;;;;;;;5015136;28;20420;-79
2022/12/24 00:12:06;;;;;;;10.70;5.70;;;;;;;;;;5015091;28;20560;-79
2022/12/24 00:14:32;;;;;;;8.97;4.17;;;;;;;;;;5015090;28;20448;-79
2022/12/24 00:16:58;;;;;;;8.47;4.47;;;;;;;;;;5015003;28;20421;-79
2022/12/24 00:19:24;;;;;;;10.03;5.57;;;;;;;;;;5013715;28;20483;-79
2022/12/24 00:21:50;;;;;;;10.73;6.10;;;;;;;;;;5014630;28;20558;-79
2022/12/24 00:24:16;;;;;;;10.00;5.10;;;;;;;;;;5013458;28;20417;-79
2022/12/24 00:26:42;;;;;;;11.23;5.77;;;;;;;;;;5014840;28;20900;-79
2022/12/24 00:29:08;;;;;;;10.00;5.83;;;;;;;;;;5014757;28;20421;-78
2022/12/24 00:31:34;;;;;;;8.30;5.13;;;;;;;;;;5014492;28;20408;-78
2022/12/24 00:34:00;;;;;;;9.97;4.43;;;;;;;;;;5014571;28;20970;-79
2022/12/24 00:36:26;;;;;;;12.43;7.10;;;;;;;;;;5012939;28;20469;-78
2022/12/24 00:38:52;;;;;;;10.87;5.63;;;;;;;;;;5014463;28;20484;-79
2022/12/24 00:41:23;;;;;;;9.87;6.40;;;;;;;;;;5014384;28;20499;-79
2022/12/24 00:44:04;;;;;;;10.60;4.90;;;;;;;;;;5014438;28;21068;-78
2022/12/24 00:46:31;;;;;;;11.37;5.90;;;;;;;;;;5014405;28;20917;-78
2022/12/24 00:48:57;;;;;;;12.57;5.93;;;;;;;;;;5013554;28;20422;-79
2022/12/24 00:51:26;;;;;;;11.67;5.80;;;;;;;;;;5012531;28;20453;-78
2022/12/24 00:53:52;;;;;;;12.47;5.60;;;;;;;;;;5013511;28;20424;-78
2022/12/24 00:56:18;;;;;;;9.93;5.67;;;;;;;;;;5014082;28;20409;-78
2022/12/24 00:58:44;;;;;;;9.87;5.50;;;;;;;;;;5014129;28;20561;-78
2022/12/24 01:01:10;;;;;;;11.33;4.40;;;;;;;;;;5014166;28;20417;-79
2022/12/24 01:03:36;;;;;;;10.43;6.50;;;;;;;;;;5014097;28;20434;-78
2022/12/24 01:06:03;;;;;;;8.33;4.73;;;;;;;;;;5013785;28;20768;-78
2022/12/24 01:08:29;;;;;;;12.47;4.70;;;;;;;;;;5014192;28;20420;-78
2022/12/24 01:10:55;;;;;;;10.57;4.90;;;;;;;;;;5012850;28;20412;-78
2022/12/24 01:13:21;;;;;;;14.70;6.77;;;;;;;;;;5013904;28;20917;-78
2022/12/24 01:15:47;;;;;;;12.47;6.80;;;;;;;;;;5013747;28;20408;-77
2022/12/24 01:18:13;;;;;;;14.90;6.37;;;;;;;;;;5013807;28;20968;-78
2022/12/24 01:20:39;;;;;;;10.00;4.73;;;;;;;;;;5012618;28;20429;-78
2022/12/24 01:23:05;;;;;;;11.37;6.20;;;;;;;;;;5012338;28;20421;-78
2022/12/24 01:25:31;;;;;;;9.70;4.77;;;;;;;;;;5011517;28;20429;-78
2022/12/24 01:27:57;;;;;;;13.23;7.63;;;;;;;;;;5013673;28;20438;-78
2022/12/24 01:30:23;;;;;;;11.10;6.50;;;;;;;;;;5012139;28;20475;-79
2022/12/24 01:32:49;;;;;;;13.50;5.33;;;;;;;;;;5013620;28;20491;-78
2022/12/24 01:35:15;;;;;;;10.50;5.77;;;;;;;;;;5010344;28;20421;-80
2022/12/24 01:37:41;;;;;;;10.93;5.63;;;;;;;;;;5013609;28;20425;-78
2022/12/24 01:45:41;;;;;;;10.40;4.70;;;;;;;;;;5013940;28;20928;-79
2022/12/24 01:48:13;;;;;;;12.10;5.70;;;;;;;;;;5012432;28;20461;-78
2022/12/24 01:50:38;;;;;;;13.73;6.77;;;;;;;;;;5013194;28;20929;-78
2022/12/24 01:53:05;;;;;;;15.47;6.83;;;;;;;;;;5013553;28;20446;-78
2022/12/24 01:55:31;;;;;;;13.77;6.70;;;;;;;;;;5012269;28;20447;-78
2022/12/24 01:57:59;;;;;;;13.93;5.43;;;;;;;;;;5013390;28;20512;-78
2022/12/24 02:00:25;;;;;;;13.40;5.30;;;;;;;;;;5013495;28;20793;-78
2022/12/24 02:02:52;;;;;;;10.07;5.70;;;;;;;;;;5013247;28;20413;-78
2022/12/24 02:05:22;;;;;;;19.40;6.17;;;;;;;;;;5013072;28;20426;-78
2022/12/24 02:07:48;;;;;;;13.13;6.30;;;;;;;;;;5013429;28;20420;-78
2022/12/24 02:10:14;;;;;;;13.10;6.57;;;;;;;;;;5013406;28;20453;-78
2022/12/24 02:12:41;;;;;;;11.50;5.63;;;;;;;;;;5013366;28;20555;-78
2022/12/24 02:15:08;;;;;;;16.83;6.40;;;;;;;;;;5013188;28;20440;-79
2022/12/24 02:17:53;;;;;;;10.63;6.43;;;;;;;;;;5013165;28;20496;-78
2022/12/24 02:20:28;;;;;;;12.60;6.27;;;;;;;;;;5012880;28;20906;-78
2022/12/24 02:23:09;;;;;;;18.30;7.27;;;;;;;;;;5013269;28;20462;-78
2022/12/24 02:25:50;;;;;;;15.63;6.20;;;;;;;;;;5013217;28;20499;-78
2022/12/24 02:28:30;;;;;;;13.67;6.30;;;;;;;;;;5013150;28;20448;-79
2022/12/24 02:31:02;;;;;;;18.63;7.87;;;;;;;;;;5013162;28;20466;-78
2022/12/24 02:33:28;;;;;;;17.10;7.00;;;;;;;;;;5013104;28;20415;-78
2022/12/24 02:36:01;;;;;;;14.40;6.10;;;;;;;;;;5012659;28;20411;-78
2022/12/24 02:38:32;;;;;;;16.23;6.97;;;;;;;;;;5011831;28;20472;-78
2022/12/24 02:41:08;;;;;;;13.60;6.60;;;;;;;;;;5012956;28;20469;-79
2022/12/24 02:43:36;;;;;;;11.93;6.30;;;;;;;;;;5012860;28;20458;-78
2022/12/24 02:46:05;;;;;;;17.60;6.23;;;;;;;;;;5013920;28;20412;-78
2022/12/24 02:48:31;;;;;;;14.30;5.03;;;;;;;;;;5016811;28;20900;-79
2022/12/24 02:51:01;;;;;;;19.80;9.40;;;;;;;;;;5016447;28;20414;-78
2022/12/24 02:53:27;;;;;;;13.70;7.40;;;;;;;;;;5016746;28;20402;-78
2022/12/24 02:56:05;;;;;;;14.23;6.97;;;;;;;;;;5015473;28;20511;-78
2022/12/24 02:58:50;;;;;;;17.13;8.03;;;;;;;;;;5016624;28;20790;-78
2022/12/24 03:01:32;;;;;;;17.40;7.43;;;;;;;;;;5016557;28;20426;-78
2022/12/24 03:04:03;;;;;;;14.50;6.97;;;;;;;;;;5016219;28;20522;-79
2022/12/24 03:06:49;;;;;;;16.07;7.40;;;;;;;;;;5016563;28;20868;-79
2022/12/24 03:09:20;;;;;;;13.70;6.37;;;;;;;;;;5016416;28;20426;-79
2022/12/24 03:11:50;;;;;;;17.53;7.13;;;;;;;;;;5016426;28;20901;-78
2022/12/24 03:14:16;;;;;;;11.70;5.50;;;;;;;;;;5016500;28;20771;-79
2022/12/24 03:16:45;;;;;;;11.87;6.67;;;;;;;;;;5016290;28;20458;-79
2022/12/24 03:19:11;;;;;;;14.17;6.57;;;;;;;;;;5015959;28;20468;-78
2022/12/24 03:21:38;;;;;;;12.57;5.10;;;;;;;;;;5031439;28;20425;-78
2022/12/24 03:24:04;;;;;;;14.73;5.43;;;;;;;;;;5016193;28;20556;-80
2022/12/24 03:26:31;;;;;;;11.03;6.03;;;;;;;;;;5016205;28;20423;-79
2022/12/24 03:28:57;;;;;;;10.03;5.57;;;;;;;;;;5015950;28;20962;-79
2022/12/24 03:31:23;;;;;;;16.70;6.03;;;;;;;;;;5016080;28;20409;-80
2022/12/24 03:33:49;;;;;;;14.33;6.40;;;;;;;;;;5015708;28;20594;-78
2022/12/24 03:36:16;;;;;;;12.00;6.40;;;;;;;;;;5015913;28;20971;-78
2022/12/24 03:38:42;;;;;;;9.40;5.10;;;;;;;;;;5015801;28;20994;-79
2022/12/24 03:41:08;;;;;;;14.20;4.87;;;;;;;;;;5031130;28;20423;-78
2022/12/24 03:43:34;;;;;;;13.10;4.47;;;;;;;;;;5030854;28;20461;-79
2022/12/24 03:46:05;;;;;;;11.30;6.40;;;;;;;;;;5015816;28;20499;-78
2022/12/24 03:48:32;;;;;;;10.20;4.10;;;;;;;;;;5015513;28;20408;-78
2022/12/24 03:50:58;;;;;;;10.03;4.60;;;;;;;;;;5015654;28;20749;-79
2022/12/24 03:53:24;;;;;;;8.57;4.97;;;;;;;;;;5015529;28;20423;-79
2022/12/24 03:55:50;;;;;;;9.27;4.07;;;;;;;;;;5015371;28;20412;-78
2022/12/24 03:58:15;;;;;;;10.20;4.90;;;;;;;;;;5029401;28;21016;-78
2022/12/24 04:00:41;;;;;;;9.57;4.80;;;;;;;;;;5013950;28;20494;-78
2022/12/24 04:03:07;;;;;;;10.20;5.27;;;;;;;;;;5014354;28;20466;-78
2022/12/24 04:05:36;;;;;;;11.13;4.67;;;;;;;;;;5015115;28;20887;-79
2022/12/24 04:08:02;;;;;;;8.80;4.73;;;;;;;;;;5015334;28;20498;-78
2022/12/24 04:10:28;;;;;;;12.17;5.73;;;;;;;;;;5015370;28;20447;-79
2022/12/24 04:12:54;;;;;;;12.07;5.03;;;;;;;;;;5030539;28;20865;-78
2022/12/24 04:15:20;;;;;;;11.63;4.53;;;;;;;;;;5015280;28;20454;-79
2022/12/24 04:17:45;;;;;;;13.93;6.70;;;;;;;;;;5030350;28;20504;-79
2022/12/24 04:20:12;;;;;;;14.13;6.00;;;;;;;;;;5030070;28;20439;-78
2022/12/24 04:22:37;;;;;;;9.53;4.10;;;;;;;;;;5030370;28;20467;-79
2022/12/24 04:25:03;;;;;;;14.40;5.17;;;;;;;;;;5015093;28;20424;-78
2022/12/24 04:27:30;;;;;;;14.63;5.10;;;;;;;;;;5015009;28;20404;-79
2022/12/24 04:29:55;;;;;;;17.33;6.50;;;;;;;;;;5030320;28;20405;-78
2022/12/24 04:32:21;;;;;;;14.77;5.80;;;;;;;;;;5014879;28;20433;-78
2022/12/24 04:34:47;;;;;;;10.60;4.37;;;;;;;;;;5029712;28;20971;-78
2022/12/24 04:37:13;;;;;;;10.43;4.10;;;;;;;;;;5014854;28;20447;-79
2022/12/24 04:39:39;;;;;;;11.47;5.70;;;;;;;;;;5029881;28;20480;-79
2022/12/24 04:42:08;;;;;;;12.50;5.10;;;;;;;;;;5014566;28;20428;-78
2022/12/24 04:44:34;;;;;;;9.90;4.60;;;;;;;;;;5014730;28;20433;-79
2022/12/24 04:47:00;;;;;;;13.10;6.07;;;;;;;;;;5014374;28;20415;-79
2022/12/24 04:49:26;;;;;;;11.03;4.83;;;;;;;;;;5029564;28;20933;-78
2022/12/24 04:51:52;;;;;;;14.27;5.53;;;;;;;;;;5014521;28;20426;-78
2022/12/24 04:54:18;;;;;;;10.50;5.03;;;;;;;;;;5014507;28;20412;-78
2022/12/24 04:56:44;;;;;;;15.00;5.03;;;;;;;;;;5014467;28;20806;-79
2022/12/24 04:59:09;;;;;;;11.17;5.27;;;;;;;;;;5029544;28;20501;-79
2022/12/24 05:01:35;;;;;;;13.10;6.50;;;;;;;;;;5029626;28;20427;-78
2022/12/24 05:04:05;;;;;;;12.27;6.40;;;;;;;;;;5014072;28;20436;-78
2022/12/24 05:06:32;;;;;;;9.43;4.50;;;;;;;;;;5029628;28;20429;-79
2022/12/24 05:08:58;;;;;;;10.67;4.97;;;;;;;;;;5028870;28;20460;-79
2022/12/24 05:11:24;;;;;;;11.20;5.27;;;;;;;;;;5029370;28;20522;-79
2022/12/24 05:13:50;;;;;;;10.40;4.90;;;;;;;;;;5029309;28;20431;-79
2022/12/24 05:16:17;;;;;;;10.80;5.83;;;;;;;;;;5013605;28;20678;-78
2022/12/24 05:18:43;;;;;;;13.67;5.53;;;;;;;;;;5013502;28;20515;-78
2022/12/24 05:21:10;;;;;;;12.40;5.03;;;;;;;;;;5014084;28;20830;-78
2022/12/24 05:26:57;;;;;;;10.20;4.80;;;;;;;;;;5014013;28;20451;-77
2022/12/24 05:29:23;;;;;;;10.93;5.00;;;;;;;;;;4934411;29;20862;-78
2022/12/24 05:31:52;;;;;;;8.93;4.97;;;;;;;;;;4998103;28;20451;-78
2022/12/24 05:34:18;;;;;;;15.47;5.40;;;;;;;;;;5028603;28;20427;-78
2022/12/24 05:36:44;;;;;;;19.13;6.93;;;;;;;;;;5013723;28;20410;-78
2022/12/24 05:39:17;;;;;;;11.20;5.40;;;;;;;;;;5013738;28;20471;-78
2022/12/24 05:41:43;;;;;;;13.70;4.87;;;;;;;;;;5013718;28;20407;-78
2022/12/24 05:44:09;;;;;;;9.40;4.40;;;;;;;;;;5028636;28;20862;-78
2022/12/24 05:46:35;;;;;;;11.70;5.63;;;;;;;;;;5013548;28;20473;-78
2022/12/24 05:49:00;;;;;;;11.23;5.70;;;;;;;;;;5013233;28;20478;-79
2022/12/24 05:51:27;;;;;;;10.47;4.77;;;;;;;;;;5013629;28;20415;-78
2022/12/24 05:53:53;;;;;;;9.90;4.20;;;;;;;;;;5013680;28;20419;-78
2022/12/24 05:56:22;;;;;;;8.17;3.80;;;;;;;;;;5013589;28;20928;-79
2022/12/24 05:58:49;;;;;;;8.77;4.27;;;;;;;;;;5013443;28;20832;-79
2022/12/24 06:01:15;;;;;;;11.57;4.37;;;;;;;;;;5028689;28;20425;-78
2022/12/24 06:03:41;;;;;;;8.13;5.07;;;;;;;;;;5028375;28;20759;-79
2022/12/24 06:06:09;;;;;;;7.90;4.00;;;;;;;;;;5013455;28;20415;-79
2022/12/24 06:08:35;;;;;;;10.00;3.77;;;;;;;;;;5013455;28;20466;-78
2022/12/24 06:11:03;;;;;;;9.03;3.47;;;;;;;;;;5013519;28;20661;-78
2022/12/24 06:13:29;;;;;;;10.57;4.17;;;;;;;;;;5013378;28;20860;-78
2022/12/24 06:15:55;;;;;;;10.67;4.27;;;;;;;;;;5013377;28;20409;-78
2022/12/24 06:18:22;;;;;;;7.27;4.20;;;;;;;;;;5012900;28;20480;-78
2022/12/24 06:20:54;;;;;;;9.87;3.13;;;;;;;;;;5015596;28;20433;-79
2022/12/24 06:23:20;;;;;;;8.60;3.83;;;;;;;;;;5032676;28;20433;-78
2022/12/24 06:25:46;;;;;;;7.23;3.53;;;;;;;;;;5017444;28;20418;-79
2022/12/24 06:28:13;;;;;;;8.57;4.67;;;;;;;;;;5017419;28;20416;-78
2022/12/24 06:30:39;;;;;;;9.83;4.73;;;;;;;;;;5017248;28;20420;-79
2022/12/24 06:33:05;;;;;;;9.90;4.97;;;;;;;;;;5016969;28;20407;-78
2022/12/24 06:35:32;;;;;;;7.40;3.37;;;;;;;;;;5017157;28;20912;-78
2022/12/24 06:37:58;;;;;;;6.63;2.60;;;;;;;;;;5017013;28;20470;-79
2022/12/24 06:40:25;;;;;;;6.47;3.33;;;;;;;;;;5032567;28;20931;-79
2022/12/24 06:42:51;;;;;;;7.90;3.60;;;;;;;;;;5017045;28;20459;-79
2022/12/24 06:45:17;;;;;;;6.93;2.20;;;;;;;;;;5016917;28;20428;-79
2022/12/24 06:47:43;;;;;;;6.47;3.00;;;;;;;;;;5017099;28;20454;-80
2022/12/24 06:50:09;;;;;;;6.30;3.03;;;;;;;;;;5016767;28;20565;-79
2022/12/24 06:52:35;;;;;;;8.63;2.77;;;;;;;;;;5032304;28;20419;-79
2022/12/24 06:55:01;;;;;;;7.30;3.80;;;;;;;;;;5032070;28;20876;-78
2022/12/24 06:57:27;;;;;;;6.20;1.97;;;;;;;;;;5016927;28;20900;-79
2022/12/24 06:59:53;;;;;;;5.27;2.17;;;;;;;;;;5016929;28;20853;-79
2022/12/24 07:02:19;;;;;;;5.57;2.53;;;;;;;;;;5032110;28;20422;-79
2022/12/24 07:04:45;;;;;;;6.97;3.00;;;;;;;;;;5016527;28;20511;-79
2022/12/24 07:07:11;;;;;;;5.70;2.37;;;;;;;;;;5016706;28;20458;-79
2022/12/24 07:09:37;;;;;;;6.00;2.67;;;;;;;;;;5016679;28;20451;-79
2022/12/24 07:12:03;;;;;;;7.63;2.90;;;;;;;;;;5031813;28;20921;-79
2022/12/24 07:14:30;;;;;;;7.50;3.37;;;;;;;;;;5016674;28;20446;-79
2022/12/24 07:16:57;;;;;;;5.77;3.60;;;;;;;;;;5016615;28;20426;-79
2022/12/24 07:19:23;;;;;;;9.70;2.53;;;;;;;;;;5031523;28;20904;-78
2022/12/24 07:21:49;;;;;;;6.97;1.87;;;;;;;;;;5016523;28;20449;-79
2022/12/24 07:24:15;;;;;;;6.23;2.57;;;;;;;;;;5016579;28;20507;-79
2022/12/24 07:26:44;;;;;;;4.03;1.93;;;;;;;;;;5016473;28;20415;-78
2022/12/24 07:29:10;;;;;;;4.70;2.23;;;;;;;;;;5031618;28;20426;-79
2022/12/24 07:31:36;;;;;;;4.33;2.43;;;;;;;;;;5015674;28;20437;-78
2022/12/24 07:34:02;;;;;;;6.70;2.97;;;;;;;;;;5030979;28;20418;-78
2022/12/24 07:36:28;;;;;;;5.00;3.33;;;;;;;;;;5016050;28;20461;-78
2022/12/24 07:38:55;;;;;;;7.90;2.03;;;;;;;;;;5031121;28;20986;-78
2022/12/24 07:41:21;;;;;;;5.87;3.10;;;;;;;;;;5015882;28;20408;-78
2022/12/24 07:43:47;;;;;;;5.50;2.90;;;;;;;;;;5030981;28;20528;-78
2022/12/24 07:46:13;;;;;;;4.60;2.57;;;;;;;;;;5015777;28;20812;-78
2022/12/24 07:48:39;;;;;;;4.97;3.20;;;;;;;;;;5015355;28;20742;-79
2022/12/24 07:51:05;;;;;;;5.57;2.70;;;;;;;;;;5030915;28;20423;-78
2022/12/24 07:53:31;;;;;;;4.67;2.30;;;;;;;;;;5015645;28;20426;-78
2022/12/24 07:55:57;;;;;;;5.50;2.40;;;;;;;;;;5015634;28;20415;-78
2022/12/24 07:58:24;;;;;;;4.57;2.53;;;;;;;;;;5030756;28;20510;-78
2022/12/24 08:00:54;;;;;;;3.60;2.10;;;;;;;;;;5015528;28;20834;-79
2022/12/24 08:03:21;;;;;;;5.00;2.63;;;;;;;;;;5015136;28;20409;-78
2022/12/24 08:05:47;;;;;;;6.13;2.57;;;;;;;;;;5015397;28;20463;-78
2022/12/24 08:08:13;;;;;;;5.40;2.33;;;;;;;;;;5015270;28;20406;-78
2022/12/24 08:10:39;;;;;;;6.23;3.37;;;;;;;;;;5015284;28;20928;-77
2022/12/24 08:13:05;;;;;;;7.90;2.37;;;;;;;;;;5015205;28;20411;-79
2022/12/24 08:15:32;;;;;;;5.33;3.57;;;;;;;;;;5015211;28;20422;-78
2022/12/24 08:18:01;;;;;;;6.00;2.70;;;;;;;;;;5014689;28;20459;-78
2022/12/24 08:20:27;;;;;;;5.83;2.43;;;;;;;;;;5015176;28;20421;-78
2022/12/24 08:22:53;;;;;;;6.20;2.80;;;;;;;;;;5030346;28;20939;-78
2022/12/24 08:25:19;;;;;;;5.10;1.70;;;;;;;;;;5014974;28;20427;-78
2022/12/24 08:27:46;;;;;;;6.57;3.07;;;;;;;;;;5014952;28;20791;-78
2022/12/24 08:30:12;;;;;;;7.17;4.13;;;;;;;;;;5014905;28;20425;-78
2022/12/24 08:32:38;;;;;;;6.57;3.43;;;;;;;;;;5014899;28;20885;-78
2022/12/24 08:35:04;;;;;;;7.60;3.40;;;;;;;;;;5014547;28;20477;-78
2022/12/24 08:37:30;;;;;;;3.70;1.87;;;;;;;;;;5014836;28;20400;-78
2022/12/24 08:39:56;;;;;;;7.53;2.40;;;;;;;;;;5029937;28;20482;-78
2022/12/24 08:42:22;;;;;;;6.80;2.97;;;;;;;;;;5014544;28;20921;-78
2022/12/24 08:44:47;;;;;;;6.37;2.70;;;;;;;;;;5028863;28;20487;-79
2022/12/24 08:47:13;;;;;;;4.00;2.53;;;;;;;;;;5014700;28;20460;-78
2022/12/24 08:49:39;;;;;;;3.63;1.90;;;;;;;;;;5014380;28;20938;-78
2022/12/24 08:52:06;;;;;;;4.87;2.40;;;;;;;;;;5014728;28;20502;-79
2022/12/24 08:54:32;;;;;;;6.23;2.03;;;;;;;;;;5014566;28;20420;-78
2022/12/24 08:56:57;;;;;;;5.33;1.83;;;;;;;;;;5014402;28;20958;-78
2022/12/24 08:59:23;;;;;;;3.67;1.93;;;;;;;;;;5014541;28;20469;-78
2022/12/24 09:01:49;;;;;;;4.20;1.70;;;;;;;;;;5014446;28;20414;-78
2022/12/24 09:04:15;;;;;;;4.00;3.17;;;;;;;;;;5029137;28;20493;-78
2022/12/24 09:06:41;;;;;;;4.33;2.60;;;;;;;;;;5014340;28;20558;-78
2022/12/24 09:09:07;;;;;;;6.03;1.40;;;;;;;;;;5014235;28;20428;-78
2022/12/24 09:11:34;;;;;;;4.63;1.80;;;;;;;;;;5014218;28;20424;-78
2022/12/24 09:13:59;;;;;;;2.30;0.93;;;;;;;;;;5014155;28;20413;-78
2022/12/24 09:16:25;;;;;;;4.60;2.47;;;;;;;;;;5014035;28;20822;-78
2022/12/24 09:18:51;;;;;;;4.40;2.70;;;;;;;;;;5013757;28;20542;-78
2022/12/24 09:21:17;;;;;;;4.97;1.90;;;;;;;;;;5014029;28;20469;-78
2022/12/24 09:23:44;;;;;;;6.70;2.93;;;;;;;;;;5014020;28;20862;-78
2022/12/24 09:26:14;;;;;;;4.40;1.73;;;;;;;;;;5013974;28;20507;-79
2022/12/24 09:28:40;;;;;;;3.30;1.90;;;;;;;;;;5013907;28;20454;-78
2022/12/24 09:31:06;;;;;;;5.27;2.17;;;;;;;;;;5013965;28;20505;-78
2022/12/24 09:33:34;;;;;;;6.40;2.50;;;;;;;;;;5013439;28;20414;-78
2022/12/24 09:36:00;;;;;;;4.27;2.20;;;;;;;;;;5013858;28;20443;-78
2022/12/24 09:38:27;;;;;;;5.30;1.87;;;;;;;;;;5013625;28;20833;-78
2022/12/24 09:40:53;;;;;;;3.60;1.90;;;;;;;;;;5013675;28;20433;-78
2022/12/24 09:43:24;;;;;;;4.20;2.37;;;;;;;;;;5013509;28;20848;-78
2022/12/24 09:45:50;;;;;;;4.03;2.10;;;;;;;;;;5013650;28;20420;-78
2022/12/24 09:48:17;;;;;;;5.17;2.67;;;;;;;;;;5013247;28;20469;-78
2022/12/24 09:51:04;;;;;;;4.20;2.43;;;;;;;;;;5028755;28;20523;-78
2022/12/24 09:53:30;;;;;;;7.23;3.10;;;;;;;;;;5013546;28;20772;-78
2022/12/24 09:55:57;;;;;;;6.53;2.03;;;;;;;;;;5028404;28;20421;-78
2022/12/24 09:58:26;;;;;;;7.70;2.67;;;;;;;;;;5013441;28;20206;-78
2022/12/24 10:00:53;;;;;;;6.00;2.30;;;;;;;;;;5028667;28;20430;-78
2022/12/24 10:03:19;;;;;;;5.93;2.33;;;;;;;;;;5013060;28;20468;-78
2022/12/24 10:06:01;;;;;;;5.07;2.70;;;;;;;;;;5013373;28;20804;-78
2022/12/24 10:08:42;;;;;;;5.73;2.27;;;;;;;;;;5013337;28;20409;-78
2022/12/24 10:11:27;;;;;;;5.80;2.40;;;;;;;;;;5013255;28;20497;-78
2022/12/24 10:14:11;;;;;;;3.17;1.50;;;;;;;;;;5013194;28;20458;-78
2022/12/24 10:16:56;;;;;;;4.53;2.77;;;;;;;;;;5028522;28;20422;-78
2022/12/24 10:19:32;;;;;;;5.13;3.60;;;;;;;;;;5012797;28;20475;-78
2022/12/24 10:22:13;;;;;;;6.33;2.80;;;;;;;;;;5013199;28;20416;-78
2022/12/24 10:24:46;;;;;;;6.47;3.93;;;;;;;;;;5028400;28;20483;-78
2022/12/24 10:27:13;;;;;;;4.73;2.60;;;;;;;;;;5013236;28;20801;-79
2022/12/24 10:29:48;;;;;;;6.80;3.57;;;;;;;;;;5028377;28;20421;-78
2022/12/24 10:32:29;;;;;;;4.77;2.50;;;;;;;;;;5013117;28;21066;-78
2022/12/24 10:34:58;;;;;;;5.60;2.40;;;;;;;;;;5013107;28;20425;-78
2022/12/24 10:37:27;;;;;;;4.00;2.47;;;;;;;;;;5028241;28;20424;-78
2022/12/24 10:39:53;;;;;;;4.80;2.30;;;;;;;;;;5012942;28;20482;-78
2022/12/24 10:42:20;;;;;;;4.43;1.93;;;;;;;;;;5012846;28;20527;-78
2022/12/24 10:44:51;;;;;;;4.87;2.90;;;;;;;;;;5013120;28;20458;-78
2022/12/24 10:47:19;;;;;;;3.87;2.07;;;;;;;;;;5012979;28;20404;-78
2022/12/24 10:49:52;;;;;;;2.63;1.27;;;;;;;;;;5012915;28;20412;-78
2022/12/24 10:52:21;;;;;;;3.97;2.40;;;;;;;;;;5028072;28;20941;-78
2022/12/24 10:55:05;;;;;;;8.50;3.50;;;;;;;;;;5028027;28;20515;-78
2022/12/24 10:57:31;;;;;;;3.67;2.60;;;;;;;;;;5012957;28;20439;-78
2022/12/24 10:59:57;;;;;;;4.83;2.23;;;;;;;;;;5028105;28;20469;-79
2022/12/24 11:02:50;;;;;;;7.53;2.30;;;;;;;;;;5012007;28;20790;-78
2022/12/24 11:05:30;;;;;;;4.53;1.87;;;;;;;;;;5023127;28;20467;-78
2022/12/24 11:08:03;;;;;;;5.43;3.57;;;;;;;;;;5015143;28;20413;-78
2022/12/24 11:10:30;;;;;;;8.67;6.43;;;;;;;;;;5017047;28;20495;-78
2022/12/24 11:12:56;;;;;;;13.17;7.93;;;;;;;;;;5016558;28;20467;-78
2022/12/24 11:15:24;;;;;;;13.37;8.90;;;;;;;;;;5031511;28;20398;-78
2022/12/24 11:18:03;;;;;;;5.60;3.63;;;;;;;;;;5016027;28;20432;-78
2022/12/24 11:20:30;;;;;;;7.10;4.10;;;;;;;;;;5031525;28;20417;-78
2022/12/24 11:22:57;;;;;;;5.33;4.00;;;;;;;;;;5016158;28;20471;-78
2022/12/24 11:25:23;;;;;;;6.60;2.90;;;;;;;;;;5031390;28;20433;-79
2022/12/24 11:28:20;;;;;;;3.90;2.30;;;;;;;;;;5031272;28;20432;-79
2022/12/24 11:30:55;;;;;;;6.27;3.90;;;;;;;;;;5031441;28;20431;-78
2022/12/24 11:33:21;;;;;;;9.20;3.33;;;;;;;;;;5030946;28;20422;-79
2022/12/24 11:35:49;;;;;;;9.03;6.00;;;;;;;;;;5015993;28;20893;-78
2022/12/24 11:38:19;;;;;;;11.80;9.07;;;;;;;;;;5015890;28;20922;-79
2022/12/24 11:40:49;;;;;;;4.87;3.07;;;;;;;;;;5015964;28;20781;-79
2022/12/24 11:43:20;;;;;;;6.30;3.27;;;;;;;;;;5015678;28;20949;-80
2022/12/24 11:46:08;;;;;;;4.07;2.37;;;;;;;;;;5015635;28;20424;-78
2022/12/24 11:48:34;;;;;;;6.17;3.20;;;;;;;;;;5030425;28;20420;-79
2022/12/24 11:51:05;;;;;;;5.10;2.90;;;;;;;;;;5030973;28;20409;-78
2022/12/24 11:53:35;;;;;;;9.10;3.80;;;;;;;;;;5030960;28;20421;-79
2022/12/24 11:56:06;;;;;;;11.13;6.20;;;;;;;;;;5015674;28;20402;-79
2022/12/24 11:58:39;;;;;;;8.23;5.30;;;;;;;;;;5015542;28;20480;-79
2022/12/24 12:01:12;;;;;;;5.47;2.73;;;;;;;;;;5030780;28;20421;-79
2022/12/24 12:03:44;;;;;;;10.40;5.80;;;;;;;;;;5030473;28;20808;-78
2022/12/24 12:06:16;;;;;;;6.60;4.10;;;;;;;;;;5015475;28;20442;-79
2022/12/24 12:08:43;;;;;;;7.80;3.90;;;;;;;;;;5030670;28;20413;-80
2022/12/24 12:11:12;;;;;;;6.03;4.07;;;;;;;;;;5030681;28;20433;-79
2022/12/24 12:13:43;;;;;;;8.03;5.87;;;;;;;;;;5015240;28;20919;-78
2022/12/24 12:16:26;;;;;;;8.30;5.67;;;;;;;;;;5030525;28;20431;-80
2022/12/24 12:18:59;;;;;;;5.20;4.00;;;;;;;;;;5014620;28;20515;-79
2022/12/24 12:21:29;;;;;;;9.53;6.33;;;;;;;;;;5030425;28;20966;-79
2022/12/24 12:23:58;;;;;;;8.00;4.90;;;;;;;;;;5015143;28;20498;-79
2022/12/24 12:26:26;;;;;;;5.87;3.10;;;;;;;;;;5015067;28;20431;-79
2022/12/24 12:28:55;;;;;;;5.63;3.00;;;;;;;;;;5030230;28;20411;-79
2022/12/24 12:31:33;;;;;;;6.70;3.63;;;;;;;;;;5030178;28;20424;-79
2022/12/24 12:34:04;;;;;;;9.73;4.63;;;;;;;;;;5029843;28;20821;-78
2022/12/24 12:36:36;;;;;;;7.37;3.90;;;;;;;;;;5014914;28;20424;-78
2022/12/24 12:39:01;;;;;;;22.73;16.43;;;;;;;;;;5030067;28;20477;-79
2022/12/24 12:42:03;;;;;;;9.20;5.03;;;;;;;;;;5029983;28;20422;-79
2022/12/24 12:44:32;;;;;;;6.60;3.23;;;;;;;;;;4916230;29;20447;-78
2022/12/24 12:47:00;;;;;;;9.97;3.80;;;;;;;;;;4996669;28;20419;-78
2022/12/24 12:49:39;;;;;;;14.70;10.37;;;;;;;;;;5029859;28;20922;-79
2022/12/24 12:52:10;;;;;;;5.97;4.93;;;;;;;;;;5014569;28;20415;-78
2022/12/24 12:54:42;;;;;;;5.90;3.50;;;;;;;;;;5029760;28;20418;-78
2022/12/24 12:57:10;;;;;;;22.40;14.30;;;;;;;;;;5029721;28;20775;-78
2022/12/24 12:59:39;;;;;;;14.73;8.93;;;;;;;;;;5014217;28;20479;-79
2022/12/24 13:02:21;;;;;;;13.30;7.17;;;;;;;;;;5012783;28;20509;-78
2022/12/24 13:04:53;;;;;;;16.03;7.03;;;;;;;;;;5013310;28;20784;-78
2022/12/24 13:07:38;;;;;;;9.17;4.80;;;;;;;;;;5013046;28;20418;-78
2022/12/24 13:10:03;;;;;;;13.00;6.30;;;;;;;;;;5012997;28;20424;-79
2022/12/24 13:12:48;;;;;;;9.00;6.43;;;;;;;;;;5012982;28;20460;-78
2022/12/24 13:15:14;;;;;;;8.80;6.57;;;;;;;;;;5014133;28;20219;-78
2022/12/24 13:17:58;;;;;;;10.00;7.77;;;;;;;;;;5013870;28;20415;-78
2022/12/24 13:20:30;;;;;;;12.20;5.87;;;;;;;;;;5014157;28;20201;-78
2022/12/24 13:22:59;;;;;;;7.70;4.50;;;;;;;;;;5014144;28;20421;-78
2022/12/24 13:25:36;;;;;;;5.53;4.00;;;;;;;;;;5014046;28;20410;-78
2022/12/24 13:28:15;;;;;;;6.50;4.07;;;;;;;;;;5014012;28;20800;-79
2022/12/24 13:30:42;;;;;;;6.77;3.90;;;;;;;;;;5013396;28;20472;-79
2022/12/24 13:33:10;;;;;;;6.77;4.70;;;;;;;;;;5013586;28;20439;-78
2022/12/24 13:35:36;;;;;;;11.10;4.97;;;;;;;;;;5013854;28;20444;-78
2022/12/24 13:38:38;;;;;;;5.90;3.77;;;;;;;;;;5012490;28;20426;-78
2022/12/24 13:41:22;;;;;;;6.97;3.47;;;;;;;;;;4972426;28;20416;-79
2022/12/24 13:44:04;;;;;;;11.83;4.07;;;;;;;;;;5009358;28;20482;-79
2022/12/24 13:46:59;;;;;;;8.47;4.30;;;;;;;;;;5013705;28;20446;-79
2022/12/24 13:49:34;;;;;;;6.33;3.30;;;;;;;;;;5004844;28;20456;-79
2022/12/24 13:52:10;;;;;;;5.33;2.93;;;;;;;;;;5012297;28;20479;-79
2022/12/24 13:54:37;;;;;;;8.60;3.73;;;;;;;;;;5013322;28;20518;-79
2022/12/24 13:57:23;;;;;;;6.97;3.57;;;;;;;;;;5013467;28;20903;-79
2022/12/24 13:59:56;;;;;;;6.33;3.03;;;;;;;;;;5013356;28;20834;-79
2022/12/24 14:02:22;;;;;;;6.50;4.10;;;;;;;;;;5011839;28;20743;-78
2022/12/24 14:04:49;;;;;;;5.90;3.77;;;;;;;;;;5012064;28;20995;-79
2022/12/24 14:07:18;;;;;;;8.00;4.17;;;;;;;;;;5012033;28;20411;-78
2022/12/24 14:09:48;;;;;;;8.30;4.20;;;;;;;;;;5013345;28;20415;-78
2022/12/24 14:12:15;;;;;;;16.43;7.37;;;;;;;;;;5013337;28;20417;-79
2022/12/24 14:14:41;;;;;;;17.47;8.80;;;;;;;;;;5013297;28;20414;-78
2022/12/24 14:17:13;;;;;;;18.40;10.23;;;;;;;;;;5012891;28;20409;-78
2022/12/24 14:19:39;;;;;;;15.07;8.40;;;;;;;;;;5011933;28;20520;-78
2022/12/24 14:22:20;;;;;;;11.50;6.27;;;;;;;;;;5013248;28;20505;-78
2022/12/24 14:24:51;;;;;;;9.87;4.60;;;;;;;;;;5012019;28;20410;-78
2022/12/24 14:27:19;;;;;;;8.67;4.90;;;;;;;;;;5013293;28;20837;-78
2022/12/24 14:29:58;;;;;;;9.53;4.50;;;;;;;;;;5013124;28;20457;-79
2022/12/24 14:32:24;;;;;;;8.87;4.47;;;;;;;;;;5012873;28;20954;-78
2022/12/24 14:35:08;;;;;;;9.67;5.27;;;;;;;;;;5013095;28;20453;-78
2022/12/24 14:37:35;;;;;;;8.50;4.57;;;;;;;;;;5013119;28;20400;-79
2022/12/24 14:40:01;;;;;;;10.30;6.37;;;;;;;;;;5012960;28;20483;-79
2022/12/24 14:42:45;;;;;;;10.20;6.13;;;;;;;;;;5013206;28;20977;-78
2022/12/24 14:45:19;;;;;;;8.13;5.20;;;;;;;;;;5016814;28;20501;-78
2022/12/24 14:47:56;;;;;;;12.17;5.43;;;;;;;;;;5016651;28;20417;-78
2022/12/24 14:50:44;;;;;;;10.40;6.00;;;;;;;;;;5015682;28;20453;-79
2022/12/24 14:53:23;;;;;;;9.30;5.77;;;;;;;;;;5016675;28;20421;-79
2022/12/24 14:55:52;;;;;;;7.27;4.00;;;;;;;;;;5016817;28;20453;-78
2022/12/24 14:58:29;;;;;;;15.93;8.00;;;;;;;;;;5016723;28;20596;-79
2022/12/24 15:01:00;;;;;;;13.07;8.77;;;;;;;;;;5015473;28;20433;-79